• Join FlightAware (Why Join?)
  • Login
  • US Flag 
05:11AM EDT


 

Airport Tracker/Info


-or-


 

Live Flight TrackerFlight Track Log ✈ UAL4476 ✈ 16-Apr-2013 ✈ KCLT - KCLE

Flight Track Log - Related Links

Times and Time Zones

All times are in EDT time to prevent confusion due to time zone crossing. See the UAL4476 flight status page for this flight to view local times or setup timezone preferences in your user account.

Time Position Orientation Groundspeed Altitude Reporting Facility
EDT Latitude Longitude Course Direction KTS MPH feet Rate Location/Type
06:24AM 35.2019 -80.9581 232° Southwest 177 204 1,400  Level Atlanta Center
06:25AM 35.1839 -80.9867 232° Southwest 176 203 3,000 2,760 Climbing Atlanta Center
06:26AM 35.1353 -81.0494 227° Southwest 264 304 5,900 2,880 Climbing Atlanta Center
06:26AM 35.1211 -81.0728 233° Southwest 258 297 7,100 2,040 Climbing Atlanta Center
06:27AM 35.0994 -81.1269 244° Southwest 285 328 8,000 900 Climbing Atlanta Center
06:27AM 35.1108 -81.1647 290° West 296 341 8,000 1,140 Level Atlanta Center
06:28AM 35.1644 -81.2289 316° Northwest 286 329 9,600 1,680 Climbing Atlanta Center
06:29AM 35.2542 -81.2283 360° North 276 318 11,400 1,500 Climbing Atlanta Center
06:30AM 35.3294 -81.1442 42° Northeast 291 335 12,600 1,500 Climbing Atlanta Center
06:31AM 35.4314 -81.1281 North 333 383 14,500 1,680 Climbing Atlanta Center
06:32AM 35.5383 -81.1497 351° North 364 419 16,000 1,500 Climbing Atlanta Center
06:33AM 35.6514 -81.1714 351° North 386 444 17,500 1,200 Climbing Atlanta Center
06:34AM 35.7625 -81.1981 349° North 407 468 18,400 1,140 Climbing Atlanta Center
06:35AM 35.8758 -81.2222 350° North 407 468 19,800 1,260 Climbing Atlanta Center
06:36AM 35.9889 -81.2492 349° North 413 475 21,000 1,140 Climbing Atlanta Center
06:37AM 36.1083 -81.2708 352° North 413 475 22,100 1,140 Climbing Atlanta Center
06:38AM 36.2278 -81.2975 350° North 425 489 23,300 900 Climbing Atlanta Center
06:39AM 36.3472 -81.3219 351° North 430 495 24,000 660 Climbing Atlanta Center
06:40AM 36.4667 -81.3489 350° North 430 495 24,700 600 Climbing Atlanta Center
06:41AM 36.5883 -81.3758 350° North 435 501 25,300 600 Climbing Atlanta Center
06:42AM 36.7119 -81.4000 351° North 441 507 26,000 600 Climbing Atlanta Center
06:43AM 36.8144 -81.4253 349° North 435 501 26,600 600 Climbing Atlanta Center
06:46AM 37.1075 -81.4897 350° North 442 509 28,200 600 Climbing Indianapolis Center
06:47AM 37.2278 -81.5169 350° North 439 505 28,800 540 Climbing Indianapolis Center
06:48AM 37.3489 -81.5436 350° North 440 506 29,400 660 Climbing Indianapolis Center
06:49AM 37.4903 -81.5756 350° North 442 509 30,200 660 Climbing Indianapolis Center
06:50AM 37.6119 -81.6017 350° North 442 509 30,800 600 Climbing Indianapolis Center
06:51AM 37.7358 -81.6308 349° North 448 516 31,500 540 Climbing Indianapolis Center
06:52AM 37.8458 -81.6558 350° North 449 517 32,000 240 Climbing Indianapolis Center
06:53AM 37.9675 -81.6831 350° North 444 511 32,000  Level Indianapolis Center
06:54AM 38.0878 -81.7097 350° North 438 504 32,000  Level Indianapolis Center
06:55AM 38.2078 -81.7375 350° North 437 503 32,000  Level Indianapolis Center
06:56AM 38.3283 -81.7647 350° North 437 503 32,000  Level Indianapolis Center
06:57AM 38.4483 -81.7878 351° North 436 502 32,000  Level Indianapolis Center
06:58AM 38.5708 -81.8083 353° North 436 502 32,000  Level Indianapolis Center
06:59AM 38.6942 -81.8278 353° North 438 504 32,000  Level Indianapolis Center
07:00AM 38.8175 -81.8472 353° North 439 505 32,000  Level Indianapolis Center
07:01AM 38.9394 -81.8678 353° North 437 503 32,000  Level Indianapolis Center
07:02AM 39.0628 -81.8883 353° North 441 507 32,000  Level Indianapolis Center
07:03AM 39.1864 -81.9100 352° North 446 513 32,000 -600 Level Indianapolis Center
07:04AM 39.3094 -81.9292 353° North 445 512 30,900 -1,740 Descending Indianapolis Center
07:05AM 39.4597 -81.9550 352° North 452 520 28,500 -2,220 Descending Indianapolis Center
07:06AM 39.5869 -81.9764 353° North 459 528 26,500 -1,980 Descending Indianapolis Center
07:07AM 39.7142 -81.9975 353° North 465 535 24,500 -1,980 Descending Indianapolis Center
07:08AM 39.8372 -82.0194 352° North 448 516 22,500 -1,680 Descending Indianapolis Center
07:09AM 39.9594 -82.0397 353° North 441 507 21,100 -1,200 Descending Indianapolis Center
07:10AM 40.0808 -82.0608 352° North 438 504 20,100 -960 Descending Indianapolis Center
07:11AM 40.1997 -82.0817 352° North 430 495 19,200 -1,380 Descending Indianapolis Center
07:12AM 40.3150 -82.0856 359° North 422 486 17,400 -1,440 Descending Indianapolis Center
07:13AM 40.4217 -82.1164 348° North 403 464 16,300 -1,080 Descending Indianapolis Center
07:14AM 40.5300 -82.0575 22° Northeast 419 482 15,300 -1,020 Descending Indianapolis Center
07:15AM 40.6258 -81.9600 38° Northeast 430 495 14,300 -960 Descending Indianapolis Center
07:16AM 40.7192 -81.8658 37° Northeast 423 487 13,400 -1,200 Descending Indianapolis Center
07:17AM 40.8325 -81.7522 37° Northeast 416 479 11,800 -1,500 Descending Cleveland Center
07:18AM 40.8619 -81.7281 32° Northeast 417 480 11,300 -1,620 Descending Cleveland Center
07:18AM 40.9231 -81.6631 39° Northeast 416 479 10,200 -1,320 Descending Cleveland Center
07:19AM 40.9525 -81.6389 32° Northeast 403 464 10,000 -240 Descending Cleveland Center
07:19AM 41.0214 -81.6289 North 384 442 10,000  Level Cleveland Center
07:20AM 41.0525 -81.6431 341° North 353 406 10,000  Level Cleveland Center
07:20AM 41.1189 -81.6664 345° North 354 407 10,000  Level Cleveland Center
07:21AM 41.1500 -81.6778 345° North 363 418 10,000 -240 Level Cleveland Center
07:21AM 41.2042 -81.6953 346° North 330 380 9,800 -540 Descending Cleveland Center
07:22AM 41.2289 -81.7067 341° North 273 314 9,500 -1,020 Descending Cleveland Center
07:22AM 41.2808 -81.7242 346° North 292 336 8,800 -1,140 Descending Cleveland Center
07:23AM 41.3183 -81.7306 353° North 289 333 8,300 -1,320 Descending Cleveland Center
07:23AM 41.3519 -81.7172 17° North 278 320 7,500 -1,980 Descending Cleveland Center
07:24AM 41.3958 -81.7014 15° North 290 334 6,300 -2,220 Descending Cleveland Center
07:24AM 41.4336 -81.6800 23° Northeast 272 313 5,300 -1,800 Descending Cleveland Center
07:25AM 41.4569 -81.6358 55° Northeast 307 353 4,500 -1,620 Descending Cleveland Center